sensor_id;sensor_type;location;lat;lon;timestamp;temperature;humidity
1506;DHT22;744;51.436;7.356;2023-02-28T00:01:04;5.40;39.70
1506;DHT22;744;51.436;7.356;2023-02-28T00:03:31;5.30;39.60
1506;DHT22;744;51.436;7.356;2023-02-28T00:06:03;5.20;39.60
1506;DHT22;744;51.436;7.356;2023-02-28T00:08:30;5.20;39.60
1506;DHT22;744;51.436;7.356;2023-02-28T00:11:01;5.10;39.50
1506;DHT22;744;51.436;7.356;2023-02-28T00:13:28;5.10;39.60
1506;DHT22;744;51.436;7.356;2023-02-28T00:16:07;5.30;39.80
1506;DHT22;744;51.436;7.356;2023-02-28T00:18:35;5.30;39.80
1506;DHT22;744;51.436;7.356;2023-02-28T00:21:01;5.40;39.80
1506;DHT22;744;51.436;7.356;2023-02-28T00:23:28;5.50;39.80
1506;DHT22;744;51.436;7.356;2023-02-28T00:25:55;5.30;39.60
1506;DHT22;744;51.436;7.356;2023-02-28T00:28:22;5.40;39.60
1506;DHT22;744;51.436;7.356;2023-02-28T00:30:49;5.60;39.60
1506;DHT22;744;51.436;7.356;2023-02-28T00:33:16;5.70;39.30
1506;DHT22;744;51.436;7.356;2023-02-28T00:35:43;5.70;39.20
1506;DHT22;744;51.436;7.356;2023-02-28T00:38:13;5.60;39.10
1506;DHT22;744;51.436;7.356;2023-02-28T00:40:40;5.70;39.20
1506;DHT22;744;51.436;7.356;2023-02-28T00:43:07;5.70;39.10
1506;DHT22;744;51.436;7.356;2023-02-28T00:45:34;5.80;39.20
1506;DHT22;744;51.436;7.356;2023-02-28T00:48:00;5.80;39.20
1506;DHT22;744;51.436;7.356;2023-02-28T00:50:27;5.70;39.10
1506;DHT22;744;51.436;7.356;2023-02-28T00:52:54;5.50;39.00
1506;DHT22;744;51.436;7.356;2023-02-28T00:55:21;5.50;39.20
1506;DHT22;744;51.436;7.356;2023-02-28T00:57:48;5.20;39.40
1506;DHT22;744;51.436;7.356;2023-02-28T01:00:15;5.30;39.70
1506;DHT22;744;51.436;7.356;2023-02-28T01:02:42;5.20;39.90
1506;DHT22;744;51.436;7.356;2023-02-28T01:05:08;5.50;39.90
1506;DHT22;744;51.436;7.356;2023-02-28T01:07:35;5.40;40.40
1506;DHT22;744;51.436;7.356;2023-02-28T01:10:02;5.40;39.80
1506;DHT22;744;51.436;7.356;2023-02-28T01:12:28;5.40;39.70
1506;DHT22;744;51.436;7.356;2023-02-28T01:14:56;5.10;39.60
1506;DHT22;744;51.436;7.356;2023-02-28T01:17:23;5.10;39.90
1506;DHT22;744;51.436;7.356;2023-02-28T01:19:53;4.90;40.10
1506;DHT22;744;51.436;7.356;2023-02-28T01:22:21;4.80;40.30
1506;DHT22;744;51.436;7.356;2023-02-28T01:24:48;4.50;40.10
1506;DHT22;744;51.436;7.356;2023-02-28T01:27:15;4.90;40.50
1506;DHT22;744;51.436;7.356;2023-02-28T01:29:42;4.70;40.50
1506;DHT22;744;51.436;7.356;2023-02-28T01:32:08;4.70;40.50
1506;DHT22;744;51.436;7.356;2023-02-28T01:34:35;4.50;40.40
1506;DHT22;744;51.436;7.356;2023-02-28T01:37:02;4.50;40.50
1506;DHT22;744;51.436;7.356;2023-02-28T01:39:30;4.80;40.70
1506;DHT22;744;51.436;7.356;2023-02-28T01:41:56;4.90;40.60
1506;DHT22;744;51.436;7.356;2023-02-28T01:44:57;4.90;40.50
1506;DHT22;744;51.436;7.356;2023-02-28T01:47:29;5.10;40.60
1506;DHT22;744;51.436;7.356;2023-02-28T01:49:57;5.00;40.30
1506;DHT22;744;51.436;7.356;2023-02-28T01:52:24;5.20;40.50
1506;DHT22;744;51.436;7.356;2023-02-28T01:54:54;5.20;40.50
1506;DHT22;744;51.436;7.356;2023-02-28T01:57:25;5.20;40.30
1506;DHT22;744;51.436;7.356;2023-02-28T01:59:57;5.50;40.40
1506;DHT22;744;51.436;7.356;2023-02-28T02:02:26;5.40;40.20
1506;DHT22;744;51.436;7.356;2023-02-28T02:05:01;5.40;40.20
1506;DHT22;744;51.436;7.356;2023-02-28T02:07:35;5.50;40.20
1506;DHT22;744;51.436;7.356;2023-02-28T02:10:15;5.10;39.90
1506;DHT22;744;51.436;7.356;2023-02-28T02:13:10;5.10;40.20
1506;DHT22;744;51.436;7.356;2023-02-28T02:18:35;4.90;40.30
1506;DHT22;744;51.436;7.356;2023-02-28T02:24:11;4.60;40.70
1506;DHT22;744;51.436;7.356;2023-02-28T02:40:30;4.60;40.90
1506;DHT22;744;51.436;7.356;2023-02-28T02:45:59;4.50;40.70
1506;DHT22;744;51.436;7.356;2023-02-28T02:48:32;4.90;41.10
1506;DHT22;744;51.436;7.356;2023-02-28T02:51:07;4.50;40.60
1506;DHT22;744;51.436;7.356;2023-02-28T02:53:46;4.70;40.80
1506;DHT22;744;51.436;7.356;2023-02-28T02:56:18;4.80;41.00
1506;DHT22;744;51.436;7.356;2023-02-28T02:58:47;4.70;41.00
1506;DHT22;744;51.436;7.356;2023-02-28T03:01:19;4.70;40.90
1506;DHT22;744;51.436;7.356;2023-02-28T03:04:01;4.60;40.80
1506;DHT22;744;51.436;7.356;2023-02-28T03:06:28;4.40;40.70
1506;DHT22;744;51.436;7.356;2023-02-28T03:08:55;4.40;40.70
1506;DHT22;744;51.436;7.356;2023-02-28T03:11:23;4.40;41.00
1506;DHT22;744;51.436;7.356;2023-02-28T03:13:52;4.40;41.30
1506;DHT22;744;51.436;7.356;2023-02-28T03:26:55;4.00;41.20
1506;DHT22;744;51.436;7.356;2023-02-28T03:32:05;4.20;41.10
1506;DHT22;744;51.436;7.356;2023-02-28T03:34:42;4.30;40.80
1506;DHT22;744;51.436;7.356;2023-02-28T03:37:16;4.20;40.60
1506;DHT22;744;51.436;7.356;2023-02-28T03:39:52;4.40;40.50
1506;DHT22;744;51.436;7.356;2023-02-28T03:42:23;4.50;40.40
1506;DHT22;744;51.436;7.356;2023-02-28T03:44:54;4.50;40.30
1506;DHT22;744;51.436;7.356;2023-02-28T03:47:45;4.40;40.20
1506;DHT22;744;51.436;7.356;2023-02-28T03:50:24;4.30;40.10
1506;DHT22;744;51.436;7.356;2023-02-28T03:53:04;4.20;40.20
1506;DHT22;744;51.436;7.356;2023-02-28T03:55:43;4.50;40.10
1506;DHT22;744;51.436;7.356;2023-02-28T04:01:00;4.40;39.90
1506;DHT22;744;51.436;7.356;2023-02-28T04:03:36;4.40;39.70
1506;DHT22;744;51.436;7.356;2023-02-28T04:06:04;4.40;39.60
1506;DHT22;744;51.436;7.356;2023-02-28T04:08:32;4.40;39.40
1506;DHT22;744;51.436;7.356;2023-02-28T04:11:14;4.20;39.70
1506;DHT22;744;51.436;7.356;2023-02-28T04:13:43;4.00;40.00
1506;DHT22;744;51.436;7.356;2023-02-28T04:16:12;3.90;40.10
1506;DHT22;744;51.436;7.356;2023-02-28T04:18:58;4.00;40.50
1506;DHT22;744;51.436;7.356;2023-02-28T04:21:37;3.80;40.30
1506;DHT22;744;51.436;7.356;2023-02-28T04:24:06;3.90;40.40
1506;DHT22;744;51.436;7.356;2023-02-28T04:26:35;4.00;40.40
1506;DHT22;744;51.436;7.356;2023-02-28T04:29:06;4.00;40.50
1506;DHT22;744;51.436;7.356;2023-02-28T04:31:33;4.00;40.40
1506;DHT22;744;51.436;7.356;2023-02-28T04:34:00;4.00;40.30
1506;DHT22;744;51.436;7.356;2023-02-28T04:36:27;4.10;40.30
1506;DHT22;744;51.436;7.356;2023-02-28T04:38:54;4.20;40.40
1506;DHT22;744;51.436;7.356;2023-02-28T04:41:22;3.90;40.40
1506;DHT22;744;51.436;7.356;2023-02-28T04:43:50;3.70;40.50
1506;DHT22;744;51.436;7.356;2023-02-28T04:46:17;3.70;40.50
1506;DHT22;744;51.436;7.356;2023-02-28T04:48:45;3.50;40.50
1506;DHT22;744;51.436;7.356;2023-02-28T04:51:13;3.50;40.70
1506;DHT22;744;51.436;7.356;2023-02-28T04:53:42;3.50;40.80
1506;DHT22;744;51.436;7.356;2023-02-28T04:56:12;3.50;40.70
1506;DHT22;744;51.436;7.356;2023-02-28T04:58:39;3.40;40.80
1506;DHT22;744;51.436;7.356;2023-02-28T05:01:25;3.30;40.90
1506;DHT22;744;51.436;7.356;2023-02-28T05:03:54;3.50;41.00
1506;DHT22;744;51.436;7.356;2023-02-28T05:06:23;3.30;40.90
1506;DHT22;744;51.436;7.356;2023-02-28T05:08:51;3.20;40.90
1506;DHT22;744;51.436;7.356;2023-02-28T05:13:48;3.60;41.10
1506;DHT22;744;51.436;7.356;2023-02-28T05:16:15;3.70;41.10
1506;DHT22;744;51.436;7.356;2023-02-28T05:18:42;3.20;41.00
1506;DHT22;744;51.436;7.356;2023-02-28T05:21:31;3.40;41.50
1506;DHT22;744;51.436;7.356;2023-02-28T05:24:00;3.50;41.60
1506;DHT22;744;51.436;7.356;2023-02-28T05:26:27;3.30;41.30
1506;DHT22;744;51.436;7.356;2023-02-28T05:28:55;3.40;41.20
1506;DHT22;744;51.436;7.356;2023-02-28T05:31:22;3.60;41.10
1506;DHT22;744;51.436;7.356;2023-02-28T05:33:49;3.60;41.00
1506;DHT22;744;51.436;7.356;2023-02-28T05:36:16;3.40;40.90
1506;DHT22;744;51.436;7.356;2023-02-28T05:38:46;3.40;40.90
1506;DHT22;744;51.436;7.356;2023-02-28T05:41:13;3.30;41.00
1506;DHT22;744;51.436;7.356;2023-02-28T05:43:40;3.30;41.20
1506;DHT22;744;51.436;7.356;2023-02-28T05:46:09;3.50;41.30
1506;DHT22;744;51.436;7.356;2023-02-28T05:48:38;3.50;41.00
1506;DHT22;744;51.436;7.356;2023-02-28T05:51:06;3.60;40.90
1506;DHT22;744;51.436;7.356;2023-02-28T05:53:33;3.40;40.90
1506;DHT22;744;51.436;7.356;2023-02-28T05:56:00;3.30;41.10
1506;DHT22;744;51.436;7.356;2023-02-28T05:58:28;3.30;41.30
1506;DHT22;744;51.436;7.356;2023-02-28T06:01:25;3.20;41.40
1506;DHT22;744;51.436;7.356;2023-02-28T06:03:58;3.00;41.40
1506;DHT22;744;51.436;7.356;2023-02-28T06:06:26;3.10;41.40
1506;DHT22;744;51.436;7.356;2023-02-28T06:08:53;3.10;41.50
1506;DHT22;744;51.436;7.356;2023-02-28T06:11:20;3.10;41.70
1506;DHT22;744;51.436;7.356;2023-02-28T06:13:47;3.00;41.70
1506;DHT22;744;51.436;7.356;2023-02-28T06:16:14;2.90;41.50
1506;DHT22;744;51.436;7.356;2023-02-28T06:18:41;3.30;41.60
1506;DHT22;744;51.436;7.356;2023-02-28T06:21:08;3.30;41.50
1506;DHT22;744;51.436;7.356;2023-02-28T06:23:35;3.20;41.50
1506;DHT22;744;51.436;7.356;2023-02-28T06:26:02;3.20;41.40
1506;DHT22;744;51.436;7.356;2023-02-28T06:28:29;3.00;41.60
1506;DHT22;744;51.436;7.356;2023-02-28T06:30:56;3.00;41.70
1506;DHT22;744;51.436;7.356;2023-02-28T06:33:22;2.80;41.70
1506;DHT22;744;51.436;7.356;2023-02-28T06:35:52;3.10;42.10
1506;DHT22;744;51.436;7.356;2023-02-28T06:38:19;3.00;42.20
1506;DHT22;744;51.436;7.356;2023-02-28T06:40:53;3.10;42.10
1506;DHT22;744;51.436;7.356;2023-02-28T06:43:20;3.10;42.00
1506;DHT22;744;51.436;7.356;2023-02-28T06:45:47;3.20;42.00
1506;DHT22;744;51.436;7.356;2023-02-28T06:48:14;3.00;42.00
1506;DHT22;744;51.436;7.356;2023-02-28T06:50:41;3.00;42.10
1506;DHT22;744;51.436;7.356;2023-02-28T06:53:08;3.10;42.30
1506;DHT22;744;51.436;7.356;2023-02-28T06:55:38;3.10;42.20
1506;DHT22;744;51.436;7.356;2023-02-28T06:58:05;3.20;42.40
1506;DHT22;744;51.436;7.356;2023-02-28T07:00:42;3.10;42.10
1506;DHT22;744;51.436;7.356;2023-02-28T07:03:09;3.00;42.30
1506;DHT22;744;51.436;7.356;2023-02-28T07:05:37;3.00;42.40
1506;DHT22;744;51.436;7.356;2023-02-28T07:08:04;3.30;42.40
1506;DHT22;744;51.436;7.356;2023-02-28T07:10:33;3.20;42.30
1506;DHT22;744;51.436;7.356;2023-02-28T07:13:00;3.30;42.40
1506;DHT22;744;51.436;7.356;2023-02-28T07:15:27;3.20;42.30
1506;DHT22;744;51.436;7.356;2023-02-28T07:17:54;3.20;42.30
1506;DHT22;744;51.436;7.356;2023-02-28T07:20:20;3.20;42.40
1506;DHT22;744;51.436;7.356;2023-02-28T07:22:47;3.30;42.60
1506;DHT22;744;51.436;7.356;2023-02-28T07:25:28;3.30;42.60
1506;DHT22;744;51.436;7.356;2023-02-28T07:27:56;3.40;42.70
1506;DHT22;744;51.436;7.356;2023-02-28T07:30:23;3.30;42.60
1506;DHT22;744;51.436;7.356;2023-02-28T07:32:49;3.40;42.70
1506;DHT22;744;51.436;7.356;2023-02-28T07:35:16;3.50;42.60
1506;DHT22;744;51.436;7.356;2023-02-28T07:37:43;3.50;42.20
1506;DHT22;744;51.436;7.356;2023-02-28T07:40:11;3.60;42.20
1506;DHT22;744;51.436;7.356;2023-02-28T07:42:39;3.80;42.30
1506;DHT22;744;51.436;7.356;2023-02-28T07:45:08;3.60;42.00
1506;DHT22;744;51.436;7.356;2023-02-28T07:47:38;3.40;41.90
1506;DHT22;744;51.436;7.356;2023-02-28T07:50:07;3.50;42.00
1506;DHT22;744;51.436;7.356;2023-02-28T07:52:34;3.40;41.90
1506;DHT22;744;51.436;7.356;2023-02-28T07:55:01;3.50;42.00
1506;DHT22;744;51.436;7.356;2023-02-28T07:57:27;3.60;42.10
1506;DHT22;744;51.436;7.356;2023-02-28T07:59:54;3.50;42.10
1506;DHT22;744;51.436;7.356;2023-02-28T08:02:21;3.40;42.20
1506;DHT22;744;51.436;7.356;2023-02-28T08:04:48;3.60;42.50
1506;DHT22;744;51.436;7.356;2023-02-28T08:07:16;3.50;42.60
1506;DHT22;744;51.436;7.356;2023-02-28T08:09:44;3.40;42.40
1506;DHT22;744;51.436;7.356;2023-02-28T08:12:11;3.60;42.50
1506;DHT22;744;51.436;7.356;2023-02-28T08:14:38;3.70;42.40
1506;DHT22;744;51.436;7.356;2023-02-28T08:17:06;3.40;42.10
1506;DHT22;744;51.436;7.356;2023-02-28T08:19:33;3.40;42.30
1506;DHT22;744;51.436;7.356;2023-02-28T08:21:59;3.40;42.40
1506;DHT22;744;51.436;7.356;2023-02-28T08:24:26;3.60;42.70
1506;DHT22;744;51.436;7.356;2023-02-28T08:26:53;3.50;42.40
1506;DHT22;744;51.436;7.356;2023-02-28T08:29:20;3.50;42.30
1506;DHT22;744;51.436;7.356;2023-02-28T08:31:47;3.60;42.70
1506;DHT22;744;51.436;7.356;2023-02-28T08:34:15;3.60;42.50
1506;DHT22;744;51.436;7.356;2023-02-28T08:37:04;3.60;41.90
1506;DHT22;744;51.436;7.356;2023-02-28T08:39:34;3.60;42.00
1506;DHT22;744;51.436;7.356;2023-02-28T08:42:02;3.60;42.10
1506;DHT22;744;51.436;7.356;2023-02-28T08:44:34;3.60;42.10
1506;DHT22;744;51.436;7.356;2023-02-28T08:47:00;3.80;42.00
1506;DHT22;744;51.436;7.356;2023-02-28T08:49:27;4.00;41.90
1506;DHT22;744;51.436;7.356;2023-02-28T08:51:55;4.30;41.80
1506;DHT22;744;51.436;7.356;2023-02-28T08:54:24;3.90;41.60
1506;DHT22;744;51.436;7.356;2023-02-28T08:56:51;4.40;41.80
1506;DHT22;744;51.436;7.356;2023-02-28T08:59:17;4.20;41.60
1506;DHT22;744;51.436;7.356;2023-02-28T09:01:44;4.20;41.60
1506;DHT22;744;51.436;7.356;2023-02-28T09:04:11;4.40;41.60
1506;DHT22;744;51.436;7.356;2023-02-28T09:06:42;4.20;41.30
1506;DHT22;744;51.436;7.356;2023-02-28T09:09:10;4.70;41.50
1506;DHT22;744;51.436;7.356;2023-02-28T09:11:37;4.60;41.20
1506;DHT22;744;51.436;7.356;2023-02-28T09:14:04;4.60;41.10
1506;DHT22;744;51.436;7.356;2023-02-28T09:16:31;4.60;40.70
1506;DHT22;744;51.436;7.356;2023-02-28T09:18:59;4.60;40.70
1506;DHT22;744;51.436;7.356;2023-02-28T09:21:26;4.40;40.40
1506;DHT22;744;51.436;7.356;2023-02-28T09:23:54;4.50;40.40
1506;DHT22;744;51.436;7.356;2023-02-28T09:26:23;4.60;40.40
1506;DHT22;744;51.436;7.356;2023-02-28T09:28:51;4.80;40.30
1506;DHT22;744;51.436;7.356;2023-02-28T09:31:24;4.90;40.20
1506;DHT22;744;51.436;7.356;2023-02-28T09:33:53;4.60;39.90
1506;DHT22;744;51.436;7.356;2023-02-28T09:36:21;5.00;40.10
1506;DHT22;744;51.436;7.356;2023-02-28T09:38:50;4.80;40.00
1506;DHT22;744;51.436;7.356;2023-02-28T09:41:24;5.00;40.00
1506;DHT22;744;51.436;7.356;2023-02-28T09:43:56;5.10;39.90
1506;DHT22;744;51.436;7.356;2023-02-28T09:46:32;5.10;39.70
1506;DHT22;744;51.436;7.356;2023-02-28T09:49:07;5.20;39.60
1506;DHT22;744;51.436;7.356;2023-02-28T09:54:21;5.10;39.10
1506;DHT22;744;51.436;7.356;2023-02-28T09:57:36;5.10;38.90
1506;DHT22;744;51.436;7.356;2023-02-28T10:05:27;4.90;38.40
1506;DHT22;744;51.436;7.356;2023-02-28T10:10:41;5.00;38.20
1506;DHT22;744;51.436;7.356;2023-02-28T10:13:20;5.00;38.20
1506;DHT22;744;51.436;7.356;2023-02-28T10:15:52;5.00;37.80
1506;DHT22;744;51.436;7.356;2023-02-28T10:18:24;5.20;38.00
1506;DHT22;744;51.436;7.356;2023-02-28T10:20:53;5.20;37.70
1506;DHT22;744;51.436;7.356;2023-02-28T10:23:32;5.30;37.60
1506;DHT22;744;51.436;7.356;2023-02-28T10:26:16;5.40;37.60
1506;DHT22;744;51.436;7.356;2023-02-28T10:28:43;5.20;36.90
1506;DHT22;744;51.436;7.356;2023-02-28T10:31:17;5.70;37.20
1506;DHT22;744;51.436;7.356;2023-02-28T10:33:46;5.70;36.70
1506;DHT22;744;51.436;7.356;2023-02-28T10:36:18;5.80;36.80
1506;DHT22;744;51.436;7.356;2023-02-28T10:38:47;6.10;36.50
1506;DHT22;744;51.436;7.356;2023-02-28T10:41:32;6.00;36.20
1506;DHT22;744;51.436;7.356;2023-02-28T10:44:22;6.30;35.80
1506;DHT22;744;51.436;7.356;2023-02-28T10:46:50;6.00;35.10
1506;DHT22;744;51.436;7.356;2023-02-28T10:49:23;5.90;35.00
1506;DHT22;744;51.436;7.356;2023-02-28T10:51:56;6.10;34.60
1506;DHT22;744;51.436;7.356;2023-02-28T10:54:34;5.90;34.20
1506;DHT22;744;51.436;7.356;2023-02-28T10:59:33;5.90;34.10
1506;DHT22;744;51.436;7.356;2023-02-28T11:02:00;6.00;34.10
1506;DHT22;744;51.436;7.356;2023-02-28T11:07:00;5.80;33.40
1506;DHT22;744;51.436;7.356;2023-02-28T11:09:35;6.00;33.40
1506;DHT22;744;51.436;7.356;2023-02-28T11:12:05;6.00;33.50
1506;DHT22;744;51.436;7.356;2023-02-28T11:14:43;5.80;33.00
1506;DHT22;744;51.436;7.356;2023-02-28T11:17:26;5.90;33.20
1506;DHT22;744;51.436;7.356;2023-02-28T11:19:58;6.20;33.20
1506;DHT22;744;51.436;7.356;2023-02-28T11:22:31;6.40;33.10
1506;DHT22;744;51.436;7.356;2023-02-28T11:25:02;6.40;32.90
1506;DHT22;744;51.436;7.356;2023-02-28T11:30:00;6.40;32.50
1506;DHT22;744;51.436;7.356;2023-02-28T11:32:29;6.30;31.90
1506;DHT22;744;51.436;7.356;2023-02-28T11:35:26;6.40;32.40
1506;DHT22;744;51.436;7.356;2023-02-28T11:37:53;6.30;32.30
1506;DHT22;744;51.436;7.356;2023-02-28T11:40:35;6.30;32.30
1506;DHT22;744;51.436;7.356;2023-02-28T11:48:54;6.90;32.30
1506;DHT22;744;51.436;7.356;2023-02-28T11:51:32;6.70;31.80
1506;DHT22;744;51.436;7.356;2023-02-28T11:54:23;6.70;32.20
1506;DHT22;744;51.436;7.356;2023-02-28T11:57:00;6.70;32.00
1506;DHT22;744;51.436;7.356;2023-02-28T12:05:50;6.90;31.90
1506;DHT22;744;51.436;7.356;2023-02-28T12:14:25;6.70;31.10
1506;DHT22;744;51.436;7.356;2023-02-28T12:19:58;6.80;31.50
1506;DHT22;744;51.436;7.356;2023-02-28T12:22:35;6.70;30.90
1506;DHT22;744;51.436;7.356;2023-02-28T12:25:47;6.80;31.20
1506;DHT22;744;51.436;7.356;2023-02-28T12:28:19;6.70;31.60
1506;DHT22;744;51.436;7.356;2023-02-28T12:31:01;7.10;31.40
1506;DHT22;744;51.436;7.356;2023-02-28T12:33:35;6.90;31.20
1506;DHT22;744;51.436;7.356;2023-02-28T12:36:10;7.20;31.30
1506;DHT22;744;51.436;7.356;2023-02-28T12:38:48;6.70;30.80
1506;DHT22;744;51.436;7.356;2023-02-28T12:44:09;6.90;30.70
1506;DHT22;744;51.436;7.356;2023-02-28T12:46:49;6.70;30.60
1506;DHT22;744;51.436;7.356;2023-02-28T12:49:45;7.00;30.90
1506;DHT22;744;51.436;7.356;2023-02-28T12:52:17;7.20;31.10
1506;DHT22;744;51.436;7.356;2023-02-28T12:55:04;7.20;31.60
1506;DHT22;744;51.436;7.356;2023-02-28T13:00:19;7.00;31.00
1506;DHT22;744;51.436;7.356;2023-02-28T13:05:46;7.00;31.00
1506;DHT22;744;51.436;7.356;2023-02-28T13:10:57;7.40;31.00
1506;DHT22;744;51.436;7.356;2023-02-28T13:13:28;7.50;31.00
1506;DHT22;744;51.436;7.356;2023-02-28T13:16:06;7.40;30.90
1506;DHT22;744;51.436;7.356;2023-02-28T13:18:37;7.20;31.00
1506;DHT22;744;51.436;7.356;2023-02-28T13:21:08;7.50;31.20
1506;DHT22;744;51.436;7.356;2023-02-28T13:26:08;7.50;31.30
1506;DHT22;744;51.436;7.356;2023-02-28T13:31:20;7.20;31.10
1506;DHT22;744;51.436;7.356;2023-02-28T13:38:59;7.40;31.00
1506;DHT22;744;51.436;7.356;2023-02-28T13:52:21;7.50;30.70
1506;DHT22;744;51.436;7.356;2023-02-28T13:58:17;7.70;30.90
1506;DHT22;744;51.436;7.356;2023-02-28T14:01:12;7.40;30.70
1506;DHT22;744;51.436;7.356;2023-02-28T14:06:34;7.50;30.80
1506;DHT22;744;51.436;7.356;2023-02-28T14:11:40;7.20;30.80
1506;DHT22;744;51.436;7.356;2023-02-28T14:14:09;7.60;31.00
1506;DHT22;744;51.436;7.356;2023-02-28T14:16:57;7.50;30.70
1506;DHT22;744;51.436;7.356;2023-02-28T14:19:30;7.50;30.70
1506;DHT22;744;51.436;7.356;2023-02-28T14:24:59;7.60;31.00
1506;DHT22;744;51.436;7.356;2023-02-28T14:27:37;7.70;31.20
1506;DHT22;744;51.436;7.356;2023-02-28T14:33:23;7.80;31.60
1506;DHT22;744;51.436;7.356;2023-02-28T14:38:47;7.80;31.10
1506;DHT22;744;51.436;7.356;2023-02-28T14:41:27;8.10;31.40
1506;DHT22;744;51.436;7.356;2023-02-28T14:43:59;8.10;31.30
1506;DHT22;744;51.436;7.356;2023-02-28T14:46:35;8.20;31.40
1506;DHT22;744;51.436;7.356;2023-02-28T14:49:04;8.00;31.30
1506;DHT22;744;51.436;7.356;2023-02-28T14:51:32;7.90;31.10
1506;DHT22;744;51.436;7.356;2023-02-28T14:54:01;8.10;31.20
1506;DHT22;744;51.436;7.356;2023-02-28T14:56:37;8.00;31.10
1506;DHT22;744;51.436;7.356;2023-02-28T14:59:17;7.90;31.00
1506;DHT22;744;51.436;7.356;2023-02-28T15:01:51;8.10;31.30
1506;DHT22;744;51.436;7.356;2023-02-28T15:04:27;8.00;31.30
1506;DHT22;744;51.436;7.356;2023-02-28T15:07:14;8.00;31.10
1506;DHT22;744;51.436;7.356;2023-02-28T15:09:41;7.90;31.30
1506;DHT22;744;51.436;7.356;2023-02-28T15:12:13;7.70;31.30
1506;DHT22;744;51.436;7.356;2023-02-28T15:14:43;7.80;31.40
1506;DHT22;744;51.436;7.356;2023-02-28T15:17:17;7.80;31.80
1506;DHT22;744;51.436;7.356;2023-02-28T15:19:49;7.80;31.80
1506;DHT22;744;51.436;7.356;2023-02-28T15:22:20;7.80;31.60
1506;DHT22;744;51.436;7.356;2023-02-28T15:24:51;7.90;31.50
1506;DHT22;744;51.436;7.356;2023-02-28T15:27:26;7.80;31.50
1506;DHT22;744;51.436;7.356;2023-02-28T15:29:59;7.90;31.40
1506;DHT22;744;51.436;7.356;2023-02-28T15:32:31;7.60;31.20
1506;DHT22;744;51.436;7.356;2023-02-28T15:34:59;8.00;31.20
1506;DHT22;744;51.436;7.356;2023-02-28T15:37:50;7.80;31.00
1506;DHT22;744;51.436;7.356;2023-02-28T15:40:36;7.70;31.00
1506;DHT22;744;51.436;7.356;2023-02-28T15:43:18;7.80;31.00
1506;DHT22;744;51.436;7.356;2023-02-28T15:45:59;7.90;31.20
1506;DHT22;744;51.436;7.356;2023-02-28T15:48:30;7.70;30.90
1506;DHT22;744;51.436;7.356;2023-02-28T15:51:14;7.80;31.00
1506;DHT22;744;51.436;7.356;2023-02-28T15:53:54;7.70;31.10
1506;DHT22;744;51.436;7.356;2023-02-28T15:56:34;7.90;31.10
1506;DHT22;744;51.436;7.356;2023-02-28T15:59:05;7.80;31.10
1506;DHT22;744;51.436;7.356;2023-02-28T16:01:36;7.80;31.10
1506;DHT22;744;51.436;7.356;2023-02-28T16:04:10;7.90;31.10
1506;DHT22;744;51.436;7.356;2023-02-28T16:07:04;7.60;31.00
1506;DHT22;744;51.436;7.356;2023-02-28T16:09:27;7.90;31.20
1506;DHT22;744;51.436;7.356;2023-02-28T16:11:59;7.80;31.10
1506;DHT22;744;51.436;7.356;2023-02-28T16:14:29;7.80;31.30
1506;DHT22;744;51.436;7.356;2023-02-28T16:17:03;7.70;31.30
1506;DHT22;744;51.436;7.356;2023-02-28T16:19:31;7.60;31.30
1506;DHT22;744;51.436;7.356;2023-02-28T16:22:00;7.90;31.60
1506;DHT22;744;51.436;7.356;2023-02-28T16:24:27;7.80;31.60
1506;DHT22;744;51.436;7.356;2023-02-28T16:26:55;7.90;31.70
1506;DHT22;744;51.436;7.356;2023-02-28T16:29:25;7.70;31.50
1506;DHT22;744;51.436;7.356;2023-02-28T16:31:54;7.80;31.60
1506;DHT22;744;51.436;7.356;2023-02-28T16:34:21;7.50;31.50
1506;DHT22;744;51.436;7.356;2023-02-28T16:36:48;7.70;31.70
1506;DHT22;744;51.436;7.356;2023-02-28T16:39:15;7.80;31.70
1506;DHT22;744;51.436;7.356;2023-02-28T16:41:44;7.50;31.40
1506;DHT22;744;51.436;7.356;2023-02-28T16:44:17;7.70;31.70
1506;DHT22;744;51.436;7.356;2023-02-28T16:46:47;7.70;31.60
1506;DHT22;744;51.436;7.356;2023-02-28T16:49:14;7.60;31.70
1506;DHT22;744;51.436;7.356;2023-02-28T16:51:41;7.60;31.80
1506;DHT22;744;51.436;7.356;2023-02-28T16:54:07;7.40;31.80
1506;DHT22;744;51.436;7.356;2023-02-28T16:56:34;7.50;32.40
1506;DHT22;744;51.436;7.356;2023-02-28T16:59:02;7.50;31.70
1506;DHT22;744;51.436;7.356;2023-02-28T17:01:28;7.60;31.80
1506;DHT22;744;51.436;7.356;2023-02-28T17:03:56;7.50;31.80
1506;DHT22;744;51.436;7.356;2023-02-28T17:06:28;7.50;31.90
1506;DHT22;744;51.436;7.356;2023-02-28T17:08:57;7.60;31.90
1506;DHT22;744;51.436;7.356;2023-02-28T17:11:24;7.50;31.70
1506;DHT22;744;51.436;7.356;2023-02-28T17:13:52;7.70;31.90
1506;DHT22;744;51.436;7.356;2023-02-28T17:16:38;7.60;32.00
1506;DHT22;744;51.436;7.356;2023-02-28T17:19:13;7.50;31.90
1506;DHT22;744;51.436;7.356;2023-02-28T17:21:41;7.70;32.20
1506;DHT22;744;51.436;7.356;2023-02-28T17:24:10;7.70;32.20
1506;DHT22;744;51.436;7.356;2023-02-28T17:26:45;7.50;32.00
1506;DHT22;744;51.436;7.356;2023-02-28T17:29:21;7.20;31.90
1506;DHT22;744;51.436;7.356;2023-02-28T17:31:48;7.40;32.00
1506;DHT22;744;51.436;7.356;2023-02-28T17:34:15;7.30;32.00
1506;DHT22;744;51.436;7.356;2023-02-28T17:36:47;7.50;32.30
1506;DHT22;744;51.436;7.356;2023-02-28T17:39:16;7.20;32.10
1506;DHT22;744;51.436;7.356;2023-02-28T17:41:54;7.50;32.30
1506;DHT22;744;51.436;7.356;2023-02-28T17:44:22;7.50;32.50
1506;DHT22;744;51.436;7.356;2023-02-28T17:46:50;7.20;32.40
1506;DHT22;744;51.436;7.356;2023-02-28T17:49:18;7.00;32.30
1506;DHT22;744;51.436;7.356;2023-02-28T17:51:46;7.00;32.50
1506;DHT22;744;51.436;7.356;2023-02-28T17:54:13;7.00;32.60
1506;DHT22;744;51.436;7.356;2023-02-28T17:56:41;7.20;32.80
1506;DHT22;744;51.436;7.356;2023-02-28T17:59:11;7.20;32.80
1506;DHT22;744;51.436;7.356;2023-02-28T18:01:39;7.00;32.70
1506;DHT22;744;51.436;7.356;2023-02-28T18:04:06;6.90;32.50
1506;DHT22;744;51.436;7.356;2023-02-28T18:06:44;7.20;32.70
1506;DHT22;744;51.436;7.356;2023-02-28T18:09:22;7.00;32.60
1506;DHT22;744;51.436;7.356;2023-02-28T18:11:50;6.90;32.60
1506;DHT22;744;51.436;7.356;2023-02-28T18:14:18;7.10;32.80
1506;DHT22;744;51.436;7.356;2023-02-28T18:16:46;7.00;32.70
1506;DHT22;744;51.436;7.356;2023-02-28T18:19:13;7.20;32.90
1506;DHT22;744;51.436;7.356;2023-02-28T18:21:44;7.00;32.80
1506;DHT22;744;51.436;7.356;2023-02-28T18:24:12;7.10;32.90
1506;DHT22;744;51.436;7.356;2023-02-28T18:26:40;7.50;33.10
1506;DHT22;744;51.436;7.356;2023-02-28T18:29:07;7.00;32.70
1506;DHT22;744;51.436;7.356;2023-02-28T18:31:35;7.00;32.60
1506;DHT22;744;51.436;7.356;2023-02-28T18:34:02;7.50;33.00
1506;DHT22;744;51.436;7.356;2023-02-28T18:36:32;7.50;33.10
1506;DHT22;744;51.436;7.356;2023-02-28T18:38:59;7.20;32.80
1506;DHT22;744;51.436;7.356;2023-02-28T18:41:26;7.50;33.00
1506;DHT22;744;51.436;7.356;2023-02-28T18:43:54;7.50;33.10
1506;DHT22;744;51.436;7.356;2023-02-28T18:46:21;7.60;33.10
1506;DHT22;744;51.436;7.356;2023-02-28T18:48:48;7.30;32.70
1506;DHT22;744;51.436;7.356;2023-02-28T18:51:17;7.50;33.60
1506;DHT22;744;51.436;7.356;2023-02-28T18:53:45;7.70;33.10
1506;DHT22;744;51.436;7.356;2023-02-28T18:56:14;7.60;33.00
1506;DHT22;744;51.436;7.356;2023-02-28T18:58:41;7.20;32.90
1506;DHT22;744;51.436;7.356;2023-02-28T19:01:27;7.30;33.20
1506;DHT22;744;51.436;7.356;2023-02-28T19:03:59;7.40;33.20
1506;DHT22;744;51.436;7.356;2023-02-28T19:06:27;7.40;33.20
1506;DHT22;744;51.436;7.356;2023-02-28T19:08:57;7.30;33.20
1506;DHT22;744;51.436;7.356;2023-02-28T19:11:25;7.40;33.20